Time;durP1;ratioP1;P1;durP2;ratioP2;P2;SDS_P1;SDS_P2;PMS_P1;PMS_P2;Temp;Humidity;BMP_temperature;BMP_pressure;BME280_temperature;BME280_humidity;BME280_pressure;Samples;Min_cycle;Max_cycle;Signal;HPM_P1;HPM_P2
2024/04/18 04:07:34;;;;;;;0.30;0.30;;;5.50;99.90;;;;;;5443337;21;20699;-64
2024/04/18 04:10:00;;;;;;;0.33;0.33;;;5.50;99.90;;;;;;5277768;27;20237;-64
2024/04/18 04:12:25;;;;;;;0.30;0.30;;;5.50;99.90;;;;;;5277755;27;20280;-64
2024/04/18 04:14:51;;;;;;;0.40;0.40;;;5.50;99.90;;;;;;5277368;27;20443;-64
2024/04/18 04:17:17;;;;;;;0.40;0.40;;;5.50;99.90;;;;;;5276073;27;20705;-64
2024/04/18 04:19:43;;;;;;;0.40;0.40;;;5.60;99.90;;;;;;5277435;27;20229;-64
2024/04/18 04:22:08;;;;;;;0.40;0.40;;;5.60;99.90;;;;;;5278123;27;20268;-63
2024/04/18 04:24:34;;;;;;;0.30;0.30;;;5.60;99.90;;;;;;5276947;27;20260;-64
2024/04/18 04:26:59;;;;;;;0.30;0.30;;;5.60;99.90;;;;;;5280511;27;20230;-64
2024/04/18 04:29:25;;;;;;;0.40;0.40;;;5.60;99.90;;;;;;5281049;27;20253;-65
2024/04/18 04:31:51;;;;;;;0.30;0.30;;;5.60;99.90;;;;;;5281746;27;20356;-64
2024/04/18 04:34:17;;;;;;;0.30;0.30;;;5.60;99.90;;;;;;5280824;27;20575;-64
2024/04/18 04:36:42;;;;;;;0.30;0.30;;;5.60;99.90;;;;;;5278674;27;20548;-64
2024/04/18 04:39:08;;;;;;;0.30;0.30;;;5.60;99.90;;;;;;5279536;27;20233;-64
2024/04/18 04:41:34;;;;;;;0.40;0.40;;;5.60;99.90;;;;;;5280655;27;20339;-64
2024/04/18 04:43:59;;;;;;;0.97;0.80;;;5.70;99.90;;;;;;5280790;27;20231;-64
2024/04/18 04:46:25;;;;;;;0.30;0.30;;;5.70;99.90;;;;;;5280114;27;20284;-65
2024/04/18 04:48:50;;;;;;;0.30;0.30;;;5.70;99.90;;;;;;5281355;27;20735;-64
2024/04/18 04:51:16;;;;;;;0.30;0.30;;;5.70;99.90;;;;;;5281012;27;20220;-64
2024/04/18 04:53:42;;;;;;;0.40;0.40;;;5.70;99.90;;;;;;5280574;27;20611;-64
2024/04/18 04:56:08;;;;;;;0.30;0.30;;;5.80;99.90;;;;;;5280096;27;20345;-64
2024/04/18 04:58:34;;;;;;;0.40;0.40;;;5.80;99.90;;;;;;5280578;27;20226;-64
2024/04/18 05:01:00;;;;;;;0.30;0.30;;;5.80;99.90;;;;;;5281408;27;20215;-65
2024/04/18 05:03:25;;;;;;;0.40;0.40;;;5.80;99.90;;;;;;5280547;27;20223;-65
2024/04/18 05:05:51;;;;;;;0.30;0.30;;;5.80;99.90;;;;;;5280219;27;20225;-64
2024/04/18 05:08:17;;;;;;;0.30;0.30;;;5.80;99.90;;;;;;5280549;27;20235;-65
2024/04/18 05:10:44;;;;;;;0.40;0.40;;;5.90;99.90;;;;;;5280278;27;20225;-60
2024/04/18 05:13:14;;;;;;;0.38;0.38;;;5.90;99.90;;;;;;5280656;27;20231;-60
2024/04/18 05:15:39;;;;;;;0.40;0.40;;;6.00;99.90;;;;;;5288932;27;20264;-60
2024/04/18 05:18:09;;;;;;;0.40;0.40;;;6.00;99.90;;;;;;5292045;26;20233;-59
2024/04/18 05:20:36;;;;;;;0.30;0.30;;;6.00;99.90;;;;;;5281090;27;20257;-60
2024/04/18 05:23:04;;;;;;;0.30;0.30;;;6.00;99.90;;;;;;5314226;26;20233;-61
2024/04/18 05:25:29;;;;;;;0.40;0.40;;;6.00;99.90;;;;;;5313929;26;20217;-61
2024/04/18 05:28:03;;;;;;;0.30;0.30;;;6.00;99.90;;;;;;5314058;27;20267;-61
2024/04/18 05:33:15;;;;;;;0.40;0.40;;;6.00;99.90;;;;;;5281044;27;20584;-64
2024/04/18 05:35:41;;;;;;;0.40;0.40;;;6.00;99.90;;;;;;5279215;27;20269;-62
2024/04/18 05:38:06;;;;;;;1.33;1.23;;;5.90;99.90;;;;;;5278799;27;20290;-65
2024/04/18 05:40:32;;;;;;;0.50;0.50;;;5.90;99.90;;;;;;5280028;27;20298;-64
2024/04/18 05:42:58;;;;;;;0.30;0.30;;;5.90;99.90;;;;;;5279753;27;20351;-63
2024/04/18 05:45:23;;;;;;;0.80;0.80;;;5.90;99.90;;;;;;5279469;27;20230;-64
2024/04/18 05:47:49;;;;;;;0.50;0.50;;;5.90;99.90;;;;;;5280060;27;20580;-63
2024/04/18 05:50:14;;;;;;;0.37;0.37;;;5.90;99.90;;;;;;5279919;27;20325;-64
2024/04/18 05:52:40;;;;;;;0.40;0.40;;;5.90;99.90;;;;;;5279953;27;20548;-64
2024/04/18 05:55:06;;;;;;;0.33;0.33;;;5.90;99.90;;;;;;5279160;27;20217;-63
2024/04/18 05:57:31;;;;;;;0.30;0.30;;;5.90;99.90;;;;;;5279248;27;20617;-63
2024/04/18 05:59:57;;;;;;;0.30;0.30;;;6.00;99.90;;;;;;5279665;27;20223;-63
2024/04/18 06:02:22;;;;;;;0.30;0.30;;;5.90;99.90;;;;;;5279592;27;20226;-63
2024/04/18 06:04:48;;;;;;;0.40;0.40;;;6.00;99.90;;;;;;5277244;27;20346;-63
2024/04/18 06:07:14;;;;;;;0.40;0.40;;;6.00;99.90;;;;;;5288770;27;20276;-63
2024/04/18 06:09:39;;;;;;;0.30;0.30;;;6.00;99.90;;;;;;5312957;26;20271;-63
2024/04/18 06:12:05;;;;;;;0.30;0.30;;;6.10;99.90;;;;;;5311481;26;20233;-63
2024/04/18 06:14:31;;;;;;;0.30;0.30;;;6.10;99.90;;;;;;5310393;26;20225;-63
2024/04/18 06:16:56;;;;;;;0.40;0.40;;;6.10;99.90;;;;;;5283508;27;20318;-64
2024/04/18 06:19:22;;;;;;;0.40;0.40;;;6.10;99.90;;;;;;5278911;27;20242;-64
2024/04/18 06:21:48;;;;;;;0.40;0.40;;;6.10;99.90;;;;;;5294256;26;20668;-64
2024/04/18 06:24:13;;;;;;;0.40;0.40;;;6.10;99.90;;;;;;5284428;27;20257;-65
2024/04/18 06:26:39;;;;;;;0.40;0.40;;;6.20;99.90;;;;;;5282521;27;20331;-65
2024/04/18 06:29:04;;;;;;;0.30;0.30;;;6.20;99.90;;;;;;5309573;27;20582;-65
2024/04/18 06:31:30;;;;;;;0.30;0.30;;;6.20;99.90;;;;;;5288845;26;20242;-64
2024/04/18 06:33:55;;;;;;;0.40;0.40;;;6.20;99.90;;;;;;5279635;27;20253;-64
2024/04/18 06:36:22;;;;;;;0.30;0.30;;;6.20;99.90;;;;;;5278906;27;20725;-63
2024/04/18 06:38:47;;;;;;;0.30;0.30;;;6.30;99.90;;;;;;5285909;27;20623;-63
2024/04/18 06:41:13;;;;;;;0.30;0.30;;;6.40;99.90;;;;;;5296842;26;20237;-63
2024/04/18 06:43:38;;;;;;;0.30;0.30;;;6.40;99.90;;;;;;5283445;27;20554;-63
2024/04/18 06:46:04;;;;;;;0.30;0.30;;;6.40;99.90;;;;;;5279241;27;20234;-65
2024/04/18 06:48:29;;;;;;;0.33;0.33;;;6.40;99.90;;;;;;5299899;26;20230;-64
2024/04/18 06:50:55;;;;;;;0.40;0.40;;;6.50;99.90;;;;;;5278890;27;20565;-64
2024/04/18 06:53:21;;;;;;;1.33;0.90;;;6.60;99.90;;;;;;5285237;27;20222;-65
2024/04/18 06:55:47;;;;;;;0.30;0.30;;;6.70;99.90;;;;;;5255996;27;20995;-65
2024/04/18 06:58:13;;;;;;;1.07;0.93;;;6.70;99.90;;;;;;5297946;26;20227;-62
2024/04/18 07:00:40;;;;;;;0.30;0.30;;;6.80;99.90;;;;;;5278380;27;20219;-65
2024/04/18 07:03:07;;;;;;;0.30;0.30;;;6.90;99.90;;;;;;5278652;27;20226;-64
2024/04/18 07:05:33;;;;;;;0.30;0.30;;;7.00;99.90;;;;;;5278637;27;20755;-65
2024/04/18 07:07:58;;;;;;;0.40;0.40;;;7.10;99.90;;;;;;5279394;27;20231;-64
2024/04/18 07:10:24;;;;;;;0.30;0.30;;;7.10;99.90;;;;;;5292713;27;20461;-65
2024/04/18 07:12:49;;;;;;;0.30;0.30;;;7.10;99.90;;;;;;5310269;27;20272;-65
2024/04/18 07:15:15;;;;;;;0.30;0.30;;;7.20;99.90;;;;;;5309408;27;20281;-65
2024/04/18 07:17:42;;;;;;;0.33;0.33;;;7.30;99.90;;;;;;5276690;27;20239;-65
2024/04/18 07:20:09;;;;;;;0.40;0.40;;;7.40;99.90;;;;;;5293982;26;20284;-66
2024/04/18 07:22:37;;;;;;;0.40;0.40;;;7.40;99.90;;;;;;5312101;26;20572;-64
2024/04/18 07:25:04;;;;;;;0.30;0.30;;;7.50;99.90;;;;;;5311959;26;20264;-65
2024/04/18 07:27:29;;;;;;;0.30;0.30;;;7.60;99.90;;;;;;5312155;26;20246;-65
2024/04/18 07:29:55;;;;;;;0.30;0.30;;;7.70;99.90;;;;;;5310776;26;20225;-65
2024/04/18 07:32:20;;;;;;;0.30;0.30;;;7.80;99.90;;;;;;5312829;26;20222;-65
2024/04/18 07:34:46;;;;;;;1.23;1.13;;;7.80;99.90;;;;;;5284156;27;20231;-65
2024/04/18 07:37:12;;;;;;;0.50;0.50;;;7.90;99.90;;;;;;5278415;27;20581;-65
2024/04/18 07:39:39;;;;;;;0.30;0.30;;;8.00;99.90;;;;;;5278448;27;20223;-65
2024/04/18 07:42:05;;;;;;;0.40;0.40;;;7.90;99.90;;;;;;5278340;27;20286;-65
2024/04/18 07:44:30;;;;;;;0.30;0.30;;;7.90;99.90;;;;;;5277662;27;20222;-67
2024/04/18 07:46:57;;;;;;;0.40;0.40;;;7.90;99.90;;;;;;5277677;27;20476;-65
2024/04/18 07:49:22;;;;;;;0.30;0.30;;;8.10;99.90;;;;;;5278684;27;20231;-64
2024/04/18 07:51:48;;;;;;;0.47;0.47;;;8.30;99.90;;;;;;5278393;27;20876;-65
2024/04/18 07:54:14;;;;;;;0.30;0.30;;;8.50;99.90;;;;;;5278064;27;20224;-64
2024/04/18 07:56:40;;;;;;;0.30;0.30;;;8.70;99.90;;;;;;5277746;27;20236;-65
2024/04/18 07:59:06;;;;;;;0.30;0.30;;;8.80;99.90;;;;;;5277213;27;20432;-65
2024/04/18 08:01:32;;;;;;;0.30;0.30;;;8.90;99.90;;;;;;5277553;27;20264;-65
2024/04/18 08:03:57;;;;;;;0.30;0.30;;;8.90;99.90;;;;;;5277659;27;20220;-65
2024/04/18 08:06:23;;;;;;;0.30;0.30;;;8.90;99.90;;;;;;5277392;27;20235;-65
2024/04/18 08:08:48;;;;;;;0.30;0.30;;;8.80;99.90;;;;;;5277942;27;20296;-65
2024/04/18 08:11:14;;;;;;;0.30;0.30;;;8.70;99.90;;;;;;5276333;27;20702;-65
2024/04/18 08:13:40;;;;;;;0.30;0.30;;;8.50;99.90;;;;;;5277417;27;20707;-64
2024/04/18 08:16:06;;;;;;;0.30;0.30;;;8.30;99.90;;;;;;5277588;27;20481;-65
2024/04/18 08:18:33;;;;;;;0.40;0.40;;;8.10;99.90;;;;;;5277904;27;20744;-64
2024/04/18 08:20:59;;;;;;;0.77;0.77;;;7.90;99.90;;;;;;5277749;27;20871;-64
2024/04/18 08:23:25;;;;;;;0.40;0.40;;;7.70;99.90;;;;;;5277472;27;20310;-65
2024/04/18 08:25:50;;;;;;;0.40;0.40;;;7.60;99.90;;;;;;5277527;27;20231;-64
2024/04/18 08:28:16;;;;;;;0.30;0.30;;;7.70;99.90;;;;;;5277063;27;20454;-65
2024/04/18 08:30:43;;;;;;;0.30;0.30;;;7.70;99.90;;;;;;5277540;27;20223;-65
2024/04/18 08:33:09;;;;;;;0.30;0.30;;;7.90;99.90;;;;;;5277376;27;20215;-65
2024/04/18 08:35:34;;;;;;;0.40;0.40;;;8.10;99.90;;;;;;5276947;27;20223;-65
2024/04/18 08:38:00;;;;;;;0.40;0.40;;;8.30;99.90;;;;;;5277622;27;20265;-65
2024/04/18 08:40:28;;;;;;;0.30;0.30;;;8.60;99.90;;;;;;5277640;27;20268;-65
2024/04/18 08:42:54;;;;;;;0.30;0.30;;;8.90;99.90;;;;;;5276985;27;20416;-66
2024/04/18 08:45:25;;;;;;;0.30;0.30;;;9.30;99.90;;;;;;5277081;27;20452;-64
2024/04/18 08:47:52;;;;;;;0.30;0.30;;;9.60;99.90;;;;;;5277364;27;20531;-65
2024/04/18 08:50:19;;;;;;;0.30;0.20;;;9.90;99.90;;;;;;5277747;27;20524;-66
2024/04/18 08:52:45;;;;;;;0.30;0.30;;;10.30;99.90;;;;;;5277995;27;20504;-64
2024/04/18 08:55:10;;;;;;;0.30;0.30;;;10.60;99.90;;;;;;5276326;27;20449;-64
2024/04/18 08:57:48;;;;;;;0.30;0.30;;;11.00;99.90;;;;;;5276727;27;20242;-64
2024/04/18 09:00:14;;;;;;;0.30;0.30;;;11.40;99.90;;;;;;5276819;27;20219;-65
2024/04/18 09:02:40;;;;;;;0.30;0.30;;;11.80;99.90;;;;;;5276936;27;20603;-65
2024/04/18 09:05:07;;;;;;;0.30;0.30;;;12.10;99.90;;;;;;5276449;27;20475;-65
2024/04/18 09:07:33;;;;;;;0.40;0.40;;;12.00;99.90;;;;;;5276450;27;20539;-65
2024/04/18 09:10:09;;;;;;;0.30;0.30;;;12.10;99.90;;;;;;5276694;27;20512;-65
2024/04/18 09:12:35;;;;;;;0.30;0.30;;;12.30;99.90;;;;;;5280164;27;20284;-66
2024/04/18 09:15:01;;;;;;;0.30;0.30;;;12.90;99.90;;;;;;5279739;27;20450;-66
2024/04/18 09:17:27;;;;;;;0.30;0.30;;;13.60;99.90;;;;;;5280269;27;20480;-66
2024/04/18 09:19:53;;;;;;;0.30;0.30;;;14.40;99.50;;;;;;5280002;27;20589;-66
2024/04/18 09:22:19;;;;;;;0.57;0.57;;;15.10;99.10;;;;;;5279905;27;20590;-66
2024/04/18 09:24:45;;;;;;;0.30;0.20;;;16.20;96.40;;;;;;5279485;27;20446;-66
2024/04/18 09:27:14;;;;;;;0.80;0.80;;;17.40;95.60;;;;;;5279885;27;20254;-66
2024/04/18 09:29:44;;;;;;;0.30;0.30;;;18.60;91.90;;;;;;5280386;27;20501;-66
2024/04/18 09:32:14;;;;;;;0.30;0.30;;;18.80;91.60;;;;;;5280119;27;20756;-67
2024/04/18 09:34:43;;;;;;;0.77;0.77;;;19.40;92.80;;;;;;5279190;27;20446;-66
2024/04/18 09:37:12;;;;;;;0.30;0.30;;;20.50;91.00;;;;;;5279784;27;20581;-64
2024/04/18 09:39:38;;;;;;;0.30;0.30;;;20.90;82.50;;;;;;5279898;27;20968;-66
2024/04/18 09:42:22;;;;;;;0.30;0.30;;;20.70;84.80;;;;;;5280495;27;20495;-66
2024/04/18 09:44:53;;;;;;;0.53;0.53;;;20.50;79.40;;;;;;5279406;27;20253;-66
2024/04/18 09:47:21;;;;;;;0.57;0.40;;;19.90;78.30;;;;;;5279425;27;20577;-66
2024/04/18 09:49:48;;;;;;;0.70;0.50;;;18.80;77.90;;;;;;5279572;27;20450;-66
2024/04/18 09:52:16;;;;;;;0.30;0.20;;;17.80;80.50;;;;;;5279611;27;21045;-66
2024/04/18 09:54:42;;;;;;;1.00;0.93;;;16.60;82.40;;;;;;5279331;27;20419;-65
2024/04/18 09:57:10;;;;;;;0.30;0.30;;;15.70;87.00;;;;;;5279831;27;20450;-65
2024/04/18 09:59:38;;;;;;;0.30;0.30;;;14.80;90.80;;;;;;5279662;27;20954;-65
2024/04/18 10:02:08;;;;;;;0.30;0.30;;;14.00;92.30;;;;;;5279426;27;20569;-65
2024/04/18 10:04:34;;;;;;;0.30;0.30;;;13.30;93.90;;;;;;5278816;27;20781;-65
2024/04/18 10:07:01;;;;;;;0.30;0.30;;;12.70;95.40;;;;;;5279063;27;20486;-65
2024/04/18 10:09:27;;;;;;;0.50;0.50;;;12.20;96.30;;;;;;5279546;27;20841;-65
2024/04/18 10:11:52;;;;;;;0.30;0.30;;;11.90;97.20;;;;;;5279778;27;20783;-65
2024/04/18 10:14:19;;;;;;;0.53;0.53;;;11.60;98.80;;;;;;5279411;27;20535;-64
2024/04/18 10:16:47;;;;;;;0.30;0.30;;;11.30;99.50;;;;;;5278973;27;20578;-64
2024/04/18 10:19:23;;;;;;;0.30;0.30;;;10.90;99.90;;;;;;5277648;27;20430;-64
2024/04/18 10:21:58;;;;;;;2.77;0.50;;;10.20;99.90;;;;;;5287764;27;20472;-61
2024/04/18 10:24:35;;;;;;;0.30;0.30;;;9.60;99.90;;;;;;5282234;27;20498;-65
2024/04/18 10:27:14;;;;;;;0.40;0.40;;;9.00;99.90;;;;;;5278502;27;20542;-66
2024/04/18 10:29:40;;;;;;;0.32;0.32;;;8.60;99.90;;;;;;5279190;27;20232;-65
2024/04/18 10:32:07;;;;;;;0.40;0.40;;;8.20;99.90;;;;;;5308012;27;20288;-66
2024/04/18 10:34:33;;;;;;;0.30;0.30;;;7.90;99.90;;;;;;5298892;27;20273;-64
2024/04/18 10:37:05;;;;;;;0.40;0.40;;;7.80;99.90;;;;;;5279305;27;20231;-63
2024/04/18 10:39:35;;;;;;;0.30;0.30;;;7.70;99.90;;;;;;5280904;27;20231;-64
2024/04/18 10:42:02;;;;;;;0.30;0.30;;;7.70;99.90;;;;;;5309676;27;20239;-64
2024/04/18 10:44:29;;;;;;;0.30;0.30;;;7.70;99.90;;;;;;5278796;27;20231;-65
2024/04/18 10:46:54;;;;;;;1.50;1.40;;;7.80;99.90;;;;;;5303801;27;20716;-64
2024/04/18 10:49:22;;;;;;;0.30;0.30;;;7.90;99.90;;;;;;5283003;27;20280;-65
2024/04/18 10:51:49;;;;;;;0.40;0.40;;;8.10;99.90;;;;;;5278944;27;20316;-64
2024/04/18 10:54:15;;;;;;;0.30;0.30;;;8.20;99.90;;;;;;5279303;27;20239;-64
2024/04/18 10:56:40;;;;;;;0.30;0.30;;;8.40;99.90;;;;;;5278095;27;20732;-65
2024/04/18 10:59:09;;;;;;;0.33;0.33;;;8.50;99.90;;;;;;5278555;27;20282;-65
2024/04/18 11:01:38;;;;;;;0.40;0.40;;;8.70;99.90;;;;;;5290196;27;20683;-65
2024/04/18 11:04:05;;;;;;;0.40;0.40;;;9.10;99.90;;;;;;5278860;27;20233;-68
2024/04/18 11:06:31;;;;;;;0.30;0.30;;;9.70;99.90;;;;;;5276909;27;20451;-63
2024/04/18 11:08:59;;;;;;;0.30;0.30;;;10.60;99.90;;;;;;5276964;27;20661;-64
2024/04/18 11:11:27;;;;;;;0.30;0.30;;;11.30;99.90;;;;;;5278325;27;20259;-64
2024/04/18 11:13:56;;;;;;;0.30;0.30;;;11.70;99.90;;;;;;5285815;27;20562;-64
2024/04/18 11:16:25;;;;;;;0.30;0.30;;;12.00;99.90;;;;;;5305583;26;20539;-64
2024/04/18 11:18:53;;;;;;;0.30;0.30;;;12.20;99.90;;;;;;5289671;26;20824;-65
2024/04/18 11:21:18;;;;;;;0.30;0.30;;;12.40;99.90;;;;;;5278352;27;20491;-63
2024/04/18 11:23:44;;;;;;;0.30;0.30;;;12.50;99.90;;;;;;5278487;27;20433;-65
2024/04/18 11:26:12;;;;;;;0.30;0.30;;;12.40;99.90;;;;;;5277956;27;20629;-65
2024/04/18 11:28:39;;;;;;;0.30;0.30;;;12.20;99.90;;;;;;5277126;27;20669;-65
2024/04/18 11:31:05;;;;;;;0.30;0.30;;;12.10;99.90;;;;;;5278305;27;20574;-65
2024/04/18 11:33:33;;;;;;;0.30;0.30;;;12.10;99.90;;;;;;5278101;27;20432;-73
2024/04/18 11:35:59;;;;;;;0.30;0.30;;;12.20;99.90;;;;;;5276782;27;20236;-72
2024/04/18 11:38:24;;;;;;;0.30;0.30;;;12.20;99.90;;;;;;5309302;26;20573;-64
2024/04/18 11:40:50;;;;;;;0.30;0.30;;;12.20;99.90;;;;;;5280147;27;20266;-65
2024/04/18 11:43:16;;;;;;;0.50;0.50;;;12.30;99.90;;;;;;5308011;26;20236;-65
2024/04/18 11:45:41;;;;;;;0.30;0.30;;;12.50;99.90;;;;;;5327656;26;20589;-65
2024/04/18 11:48:07;;;;;;;0.70;0.70;;;12.80;99.90;;;;;;5309025;26;20263;-65
2024/04/18 11:50:33;;;;;;;1.33;0.67;;;13.00;99.90;;;;;;5332187;26;20234;-64
2024/04/18 11:52:58;;;;;;;0.30;0.30;;;13.10;99.90;;;;;;5313834;26;20364;-64
2024/04/18 11:55:24;;;;;;;0.30;0.30;;;12.80;99.90;;;;;;5308755;26;20327;-63
2024/04/18 11:57:49;;;;;;;0.30;0.30;;;12.50;99.90;;;;;;5308887;26;20264;-66
2024/04/18 12:00:15;;;;;;;0.30;0.30;;;12.00;99.90;;;;;;5308888;26;20270;-64
2024/04/18 12:02:41;;;;;;;0.30;0.30;;;11.70;99.90;;;;;;5332278;26;20809;-64
2024/04/18 12:05:08;;;;;;;0.30;0.30;;;11.40;99.90;;;;;;5329742;26;20234;-66
2024/04/18 12:07:33;;;;;;;0.30;0.30;;;11.10;99.90;;;;;;5304640;27;20553;-65
2024/04/18 12:09:59;;;;;;;0.53;0.53;;;10.80;99.90;;;;;;5285022;27;20516;-65
2024/04/18 12:12:24;;;;;;;0.40;0.40;;;10.70;99.90;;;;;;5277491;27;20782;-64
2024/04/18 12:14:50;;;;;;;0.30;0.30;;;10.50;99.90;;;;;;5277919;27;20283;-65
2024/04/18 12:17:16;;;;;;;0.40;0.40;;;10.30;99.90;;;;;;5308419;26;20272;-64
2024/04/18 12:19:43;;;;;;;0.40;0.40;;;10.30;99.90;;;;;;5310228;27;20228;-65
2024/04/18 12:22:15;;;;;;;0.30;0.30;;;10.40;99.90;;;;;;5302140;26;20577;-65
2024/04/18 12:24:41;;;;;;;0.50;0.50;;;10.50;99.90;;;;;;5310999;26;20455;-66
2024/04/18 12:27:06;;;;;;;0.30;0.27;;;10.60;99.90;;;;;;5311403;27;20503;-65
2024/04/18 12:29:32;;;;;;;0.30;0.30;;;10.70;99.90;;;;;;5298156;26;20517;-65
2024/04/18 12:31:59;;;;;;;0.40;0.40;;;10.80;99.90;;;;;;5284962;27;20241;-63
2024/04/18 12:34:26;;;;;;;0.30;0.30;;;10.90;99.90;;;;;;5277479;27;20688;-66
2024/04/18 12:36:52;;;;;;;0.30;0.30;;;11.00;99.90;;;;;;5276862;27;21018;-66
2024/04/18 12:39:17;;;;;;;0.30;0.30;;;11.10;99.90;;;;;;5277678;27;20429;-65
2024/04/18 12:41:43;;;;;;;0.60;0.60;;;11.20;99.90;;;;;;5282695;27;20559;-66
2024/04/18 12:44:09;;;;;;;0.30;0.30;;;11.40;99.90;;;;;;5296199;26;20276;-68
2024/04/18 12:46:35;;;;;;;0.30;0.30;;;11.70;99.90;;;;;;5278020;27;20282;-68
2024/04/18 12:49:01;;;;;;;0.30;0.30;;;11.90;99.90;;;;;;5278706;27;20441;-67
2024/04/18 12:51:27;;;;;;;0.30;0.30;;;12.20;99.90;;;;;;5285741;27;20527;-68
2024/04/18 12:53:52;;;;;;;0.53;0.53;;;12.50;99.90;;;;;;5312775;27;20222;-68
2024/04/18 12:56:19;;;;;;;0.30;0.30;;;12.70;99.90;;;;;;5314049;27;20569;-67
2024/04/18 12:58:44;;;;;;;0.30;0.30;;;13.10;99.90;;;;;;5290969;26;20733;-68
2024/04/18 13:01:11;;;;;;;0.30;0.30;;;13.40;99.90;;;;;;5279476;27;20446;-68
2024/04/18 13:03:37;;;;;;;0.30;0.30;;;13.60;99.90;;;;;;5277618;27;20228;-68
2024/04/18 13:06:03;;;;;;;0.33;0.33;;;13.80;99.90;;;;;;5279779;27;20514;-68
2024/04/18 13:08:28;;;;;;;0.30;0.20;;;13.90;99.90;;;;;;5280322;27;20456;-67
2024/04/18 13:10:54;;;;;;;0.30;0.30;;;14.00;99.90;;;;;;5281040;27;20458;-67
2024/04/18 13:13:19;;;;;;;1.63;0.50;;;14.10;99.90;;;;;;5280248;27;20237;-67
2024/04/18 13:15:45;;;;;;;0.30;0.30;;;14.30;99.90;;;;;;5279859;27;20244;-68
2024/04/18 13:18:10;;;;;;;0.33;0.33;;;14.50;99.90;;;;;;5280056;27;20319;-67
2024/04/18 13:20:36;;;;;;;0.30;0.30;;;14.70;99.90;;;;;;5278634;27;20226;-67
2024/04/18 13:23:01;;;;;;;0.50;0.50;;;14.70;99.90;;;;;;5280180;27;20235;-68
2024/04/18 13:25:27;;;;;;;0.30;0.30;;;14.60;99.30;;;;;;5279498;27;20624;-68
2024/04/18 13:27:53;;;;;;;0.30;0.30;;;14.30;99.10;;;;;;5279766;27;20224;-67
2024/04/18 13:30:19;;;;;;;0.43;0.43;;;14.00;99.20;;;;;;5280342;27;20225;-67
2024/04/18 13:32:44;;;;;;;0.30;0.30;;;13.60;99.10;;;;;;5280145;27;20216;-67
2024/04/18 13:35:10;;;;;;;0.30;0.30;;;13.30;99.90;;;;;;5279736;27;20442;-67
2024/04/18 13:37:36;;;;;;;0.30;0.30;;;13.00;99.90;;;;;;5280066;27;20715;-67
2024/04/18 13:40:02;;;;;;;0.30;0.30;;;13.00;99.90;;;;;;5279949;27;20317;-68
2024/04/18 13:42:28;;;;;;;0.30;0.30;;;13.20;99.90;;;;;;5279956;27;20503;-67
2024/04/18 13:44:54;;;;;;;0.30;0.30;;;13.40;99.90;;;;;;5279401;27;20431;-68
2024/04/18 13:47:20;;;;;;;0.30;0.30;;;13.50;99.90;;;;;;5279598;27;20229;-68
2024/04/18 13:49:45;;;;;;;0.40;0.40;;;13.40;99.10;;;;;;5279915;27;20228;-69
2024/04/18 13:52:11;;;;;;;0.30;0.30;;;13.30;97.30;;;;;;5279576;27;20731;-69
2024/04/18 13:54:36;;;;;;;0.30;0.30;;;13.10;97.70;;;;;;5279353;27;20237;-66
2024/04/18 13:57:05;;;;;;;0.30;0.30;;;13.00;98.50;;;;;;5278992;27;20231;-68
2024/04/18 13:59:31;;;;;;;0.30;0.30;;;12.50;96.10;;;;;;5279274;27;20226;-67
2024/04/18 14:01:56;;;;;;;0.77;0.53;;;12.30;96.30;;;;;;5279620;27;20510;-67
2024/04/18 14:04:22;;;;;;;0.30;0.30;;;12.10;96.60;;;;;;5279720;27;20259;-67
2024/04/18 14:06:48;;;;;;;0.30;0.30;;;11.80;97.90;;;;;;5278739;27;20250;-67
2024/04/18 14:09:13;;;;;;;0.30;0.30;;;11.50;99.10;;;;;;5279803;27;20218;-68
2024/04/18 14:11:39;;;;;;;0.30;0.30;;;11.10;99.70;;;;;;5277921;27;20220;-68
2024/04/18 14:14:06;;;;;;;0.40;0.40;;;10.60;99.40;;;;;;5279552;27;20216;-67
2024/04/18 14:19:17;;;;;;;0.30;0.30;;;10.20;99.90;;;;;;5279104;27;20279;-68
2024/04/18 14:21:42;;;;;;;0.40;0.40;;;10.00;99.90;;;;;;5280722;27;20303;-67
2024/04/18 14:24:08;;;;;;;0.33;0.33;;;9.90;99.90;;;;;;5278878;27;20224;-66
2024/04/18 14:26:34;;;;;;;0.40;0.40;;;9.80;99.90;;;;;;5297017;27;20601;-66
2024/04/18 14:28:59;;;;;;;0.30;0.30;;;9.80;99.90;;;;;;5281323;27;20230;-68
2024/04/18 14:31:25;;;;;;;0.40;0.40;;;9.80;99.00;;;;;;5281831;27;20374;-68
2024/04/18 14:33:52;;;;;;;0.30;0.30;;;9.90;98.90;;;;;;5279217;27;20219;-68
2024/04/18 14:36:18;;;;;;;0.65;0.65;;;9.90;99.90;;;;;;5281066;27;20279;-69
2024/04/18 14:38:43;;;;;;;0.30;0.30;;;9.80;99.90;;;;;;5290408;26;20230;-68
2024/04/18 14:41:09;;;;;;;0.40;0.40;;;9.70;99.90;;;;;;5313156;26;20222;-69
2024/04/18 14:43:34;;;;;;;0.40;0.40;;;9.50;99.90;;;;;;5294483;27;20227;-67
2024/04/18 14:46:00;;;;;;;0.40;0.40;;;9.30;99.90;;;;;;5278729;27;20270;-68
2024/04/18 14:48:26;;;;;;;0.40;0.40;;;9.20;99.90;;;;;;5278907;27;20686;-68
2024/04/18 14:50:52;;;;;;;0.30;0.30;;;9.00;99.90;;;;;;5281691;27;20486;-67
2024/04/18 14:53:19;;;;;;;0.47;0.47;;;9.10;99.90;;;;;;5283719;27;20246;-68
2024/04/18 14:55:44;;;;;;;0.30;0.30;;;9.10;99.90;;;;;;5273943;27;20278;-68
2024/04/18 14:58:10;;;;;;;0.30;0.30;;;9.20;99.90;;;;;;5306000;27;20567;-68
2024/04/18 15:00:37;;;;;;;0.33;0.33;;;9.10;99.90;;;;;;5285275;26;20231;-68
2024/04/18 15:03:03;;;;;;;0.30;0.30;;;9.00;99.90;;;;;;5305311;26;20225;-68
2024/04/18 15:05:30;;;;;;;0.38;0.38;;;9.00;99.90;;;;;;5309391;27;20319;-71
2024/04/18 15:07:56;;;;;;;0.30;0.30;;;9.00;99.90;;;;;;5276368;27;20274;-71
2024/04/18 15:10:24;;;;;;;0.30;0.30;;;8.90;99.90;;;;;;5280865;27;20231;-70
2024/04/18 15:12:50;;;;;;;0.30;0.30;;;8.70;99.90;;;;;;5296049;26;20226;-70
2024/04/18 15:15:16;;;;;;;0.30;0.30;;;8.60;99.90;;;;;;5280005;27;20283;-67
2024/04/18 15:17:42;;;;;;;0.40;0.40;;;8.60;99.90;;;;;;5297138;26;20334;-67
2024/04/18 15:20:08;;;;;;;0.30;0.30;;;8.60;99.90;;;;;;5307864;27;20284;-67
2024/04/18 15:22:34;;;;;;;0.30;0.30;;;8.80;99.90;;;;;;5292249;26;20228;-67
2024/04/18 15:25:00;;;;;;;0.32;0.32;;;9.00;99.90;;;;;;5278025;27;20215;-66
2024/04/18 15:27:26;;;;;;;0.30;0.30;;;9.20;99.90;;;;;;5276085;27;20310;-67
2024/04/18 15:29:51;;;;;;;0.40;0.40;;;9.20;99.90;;;;;;5277507;27;20266;-66
2024/04/18 15:32:19;;;;;;;0.30;0.30;;;9.20;99.90;;;;;;5277669;27;20338;-66
2024/04/18 15:34:45;;;;;;;0.30;0.30;;;9.20;99.90;;;;;;5278679;27;20219;-66
2024/04/18 15:37:11;;;;;;;0.30;0.30;;;9.10;99.90;;;;;;5278104;27;20296;-66
2024/04/18 15:39:36;;;;;;;0.30;0.30;;;9.00;99.90;;;;;;5277826;27;20614;-67
2024/04/18 15:42:02;;;;;;;0.87;0.87;;;9.00;99.90;;;;;;5278200;27;20685;-68
2024/04/18 15:44:28;;;;;;;1.13;0.83;;;9.10;99.90;;;;;;5278473;27;20262;-68
2024/04/18 15:46:54;;;;;;;0.40;0.40;;;9.20;99.90;;;;;;5277673;27;20243;-68
2024/04/18 15:49:19;;;;;;;0.60;0.60;;;9.20;99.90;;;;;;5278069;27;20270;-69
2024/04/18 15:51:45;;;;;;;0.30;0.30;;;9.00;99.90;;;;;;5278542;27;20269;-68
2024/04/18 15:54:10;;;;;;;0.40;0.40;;;8.90;99.90;;;;;;5277313;27;20227;-67
2024/04/18 15:56:36;;;;;;;0.30;0.30;;;8.80;99.90;;;;;;5277342;27;20776;-68
2024/04/18 15:59:02;;;;;;;0.40;0.40;;;8.80;99.90;;;;;;5277917;27;20823;-68
2024/04/18 16:01:28;;;;;;;0.30;0.30;;;8.80;99.90;;;;;;5277932;27;20219;-66
2024/04/18 16:03:53;;;;;;;0.38;0.38;;;8.80;99.90;;;;;;5276464;27;20230;-69
2024/04/18 16:06:21;;;;;;;0.30;0.30;;;8.80;99.90;;;;;;5277283;27;20296;-68
2024/04/18 16:08:47;;;;;;;0.40;0.40;;;8.90;99.90;;;;;;5277734;27;20282;-68
2024/04/18 16:11:12;;;;;;;0.40;0.40;;;9.00;99.90;;;;;;5277430;27;20231;-68
2024/04/18 16:13:38;;;;;;;0.30;0.30;;;9.10;99.90;;;;;;5277737;27;20224;-68
2024/04/18 16:16:04;;;;;;;0.38;0.38;;;9.10;99.90;;;;;;5277189;27;20265;-66
2024/04/18 16:18:31;;;;;;;0.30;0.30;;;9.20;99.90;;;;;;5277611;27;20545;-68
2024/04/18 16:21:00;;;;;;;0.30;0.30;;;9.30;99.90;;;;;;5278445;27;20831;-66
2024/04/18 16:23:26;;;;;;;0.30;0.30;;;9.40;99.90;;;;;;5281066;27;20223;-68
2024/04/18 16:25:51;;;;;;;0.30;0.30;;;9.40;99.90;;;;;;5278936;27;20625;-67
2024/04/18 16:28:18;;;;;;;0.30;0.30;;;9.40;99.90;;;;;;5280926;27;20357;-67
2024/04/18 16:30:44;;;;;;;0.93;0.93;;;9.40;99.90;;;;;;5278728;27;20258;-66
2024/04/18 16:33:10;;;;;;;0.40;0.40;;;9.30;99.90;;;;;;5281031;27;20282;-67
2024/04/18 16:35:35;;;;;;;0.30;0.30;;;9.30;99.90;;;;;;5280670;27;20278;-67
2024/04/18 16:38:01;;;;;;;0.30;0.30;;;9.30;99.90;;;;;;5280817;27;20621;-67
2024/04/18 16:40:27;;;;;;;0.30;0.30;;;9.40;99.90;;;;;;5280715;27;20271;-67
2024/04/18 16:42:52;;;;;;;0.30;0.30;;;9.50;99.90;;;;;;5280596;27;20214;-66
2024/04/18 16:45:18;;;;;;;0.30;0.30;;;9.60;99.90;;;;;;5280271;27;20281;-68
2024/04/18 16:47:44;;;;;;;0.30;0.30;;;9.70;99.90;;;;;;5280700;27;20569;-67
2024/04/18 16:50:09;;;;;;;0.73;0.73;;;9.70;99.90;;;;;;5280654;27;20219;-65
2024/04/18 16:52:35;;;;;;;0.40;0.40;;;9.80;99.90;;;;;;5280522;27;20227;-66
2024/04/18 16:55:01;;;;;;;0.30;0.30;;;9.80;99.90;;;;;;5279937;27;20265;-69
2024/04/18 16:57:26;;;;;;;0.30;0.30;;;9.80;99.90;;;;;;5280274;27;20231;-68
2024/04/18 16:59:52;;;;;;;0.30;0.30;;;9.80;99.90;;;;;;5280656;27;20756;-66